Time,TemperatureF,DewpointF,PressureIn,WindDirection,WindDirectionDegrees,WindSpeedMPH,WindSpeedGustMPH,Humidity,HourlyPrecipIn,Conditions,Clouds,dailyrainin,SoftwareType,DateUTC
2013-03-05 00:01:00,21.0,9.0,-100.00,SW,220,1.0,4.0,58,-99.99,,,-99.99,,2013-03-05 07:01:00,
2013-03-05 00:11:00,21.0,9.0,-100.00,SSW,200,2.0,4.0,59,-99.99,,,-99.99,,2013-03-05 07:11:00,
2013-03-05 00:21:00,21.0,9.0,-100.00,SW,215,4.0,6.0,59,-99.99,,,-99.99,,2013-03-05 07:21:00,
2013-03-05 00:31:00,21.0,9.0,-100.00,SW,230,1.0,6.0,59,-99.99,,,-99.99,,2013-03-05 07:31:00,
2013-03-05 00:41:00,21.0,9.0,-100.00,SW,215,2.0,6.0,60,-99.99,,,-99.99,,2013-03-05 07:41:00,
2013-03-05 00:51:00,21.0,9.0,-100.00,SW,215,2.0,6.0,60,-99.99,,,-99.99,,2013-03-05 07:51:00,
2013-03-05 01:01:00,21.0,10.0,-100.00,SW,215,1.0,3.0,61,-99.99,,,-99.99,,2013-03-05 08:01:00,
2013-03-05 01:11:00,21.0,10.0,-100.00,ENE,65,1.0,4.0,62,-99.99,,,-99.99,,2013-03-05 08:11:00,
2013-03-05 01:21:00,20.0,10.0,-100.00,NE,50,1.0,3.0,63,-99.99,,,-99.99,,2013-03-05 08:21:00,
2013-03-05 01:31:00,20.0,10.0,-100.00,ENE,70,1.0,4.0,64,-99.99,,,-99.99,,2013-03-05 08:31:00,
2013-03-05 01:41:00,20.0,10.0,-100.00,East,85,1.0,4.0,65,-99.99,,,-99.99,,2013-03-05 08:41:00,
2013-03-05 01:51:00,20.0,10.0,-100.00,NE,40,0.0,2.0,66,-99.99,,,-99.99,,2013-03-05 08:51:00,
2013-03-05 02:01:00,19.0,10.0,-100.00,East,100,1.0,4.0,67,-99.99,,,-99.99,,2013-03-05 09:01:00,
2013-03-05 02:11:00,19.0,11.0,-100.00,NE,50,1.0,4.0,68,-99.99,,,-99.99,,2013-03-05 09:11:00,
2013-03-05 02:21:00,19.0,11.0,-100.00,NE,50,1.0,4.0,68,-99.99,,,-99.99,,2013-03-05 09:21:00,
2013-03-05 02:31:00,19.0,10.0,-100.00,NE,45,1.0,4.0,68,-99.99,,,-99.99,,2013-03-05 09:31:00,
2013-03-05 02:42:00,19.0,10.0,-100.00,East,90,2.0,4.0,69,-99.99,,,-99.99,,2013-03-05 09:42:00,
2013-03-05 02:51:00,18.0,10.0,-100.00,NE,55,1.0,4.0,69,-99.99,,,-99.99,,2013-03-05 09:51:00,
2013-03-05 03:01:00,18.0,10.0,-100.00,East,80,1.0,4.0,70,-99.99,,,-99.99,,2013-03-05 10:01:00,
2013-03-05 03:11:00,18.0,10.0,-100.00,ENE,65,1.0,4.0,71,-99.99,,,-99.99,,2013-03-05 10:11:00,
2013-03-05 03:21:00,18.0,10.0,-100.00,South,190,0.0,3.0,71,-99.99,,,-99.99,,2013-03-05 10:21:00,
2013-03-05 03:32:00,18.0,10.0,-100.00,East,85,1.0,3.0,71,-99.99,,,-99.99,,2013-03-05 10:32:00,
2013-03-05 03:41:00,18.0,10.0,-100.00,East,85,1.0,3.0,71,-99.99,,,-99.99,,2013-03-05 10:41:00,
2013-03-05 03:51:00,17.0,10.0,-100.00,NE,55,1.0,3.0,72,-99.99,,,-99.99,,2013-03-05 10:51:00,
2013-03-05 04:01:00,17.0,10.0,-100.00,East,90,0.0,2.0,73,-99.99,,,-99.99,,2013-03-05 11:01:00,
2013-03-05 04:11:00,17.0,10.0,-100.00,East,90,1.0,5.0,74,-99.99,,,-99.99,,2013-03-05 11:11:00,
2013-03-05 04:21:00,17.0,10.0,-100.00,East,90,1.0,5.0,74,-99.99,,,-99.99,,2013-03-05 11:21:00,
2013-03-05 04:32:00,17.0,10.0,-100.00,East,85,1.0,4.0,74,-99.99,,,-99.99,,2013-03-05 11:32:00,
2013-03-05 04:41:00,16.0,10.0,-100.00,East,80,2.0,6.0,74,-99.99,,,-99.99,,2013-03-05 11:41:00,
2013-03-05 04:52:00,16.0,9.0,-100.00,East,80,1.0,3.0,74,-99.99,,,-99.99,,2013-03-05 11:52:00,
2013-03-05 05:02:00,16.0,9.0,-100.00,East,80,1.0,3.0,74,-99.99,,,-99.99,,2013-03-05 12:02:00,
2013-03-05 05:11:00,16.0,9.0,-100.00,NE,45,1.0,3.0,74,-99.99,,,-99.99,,2013-03-05 12:11:00,
2013-03-05 05:22:00,16.0,9.0,-100.00,ENE,75,0.0,4.0,75,-99.99,,,-99.99,,2013-03-05 12:22:00,
2013-03-05 05:32:00,16.0,9.0,-100.00,ENE,75,0.0,4.0,75,-99.99,,,-99.99,,2013-03-05 12:32:00,
2013-03-05 05:42:00,15.0,9.0,-100.00,East,90,1.0,2.0,75,-99.99,,,-99.99,,2013-03-05 12:42:00,
2013-03-05 05:52:00,15.0,9.0,-100.00,East,90,1.0,2.0,75,-99.99,,,-99.99,,2013-03-05 12:52:00,
2013-03-05 06:01:00,15.0,9.0,-100.00,East,80,2.0,4.0,76,-99.99,,,-99.99,,2013-03-05 13:01:00,
2013-03-05 06:11:00,15.0,9.0,-100.00,East,85,2.0,5.0,76,-99.99,,,-99.99,,2013-03-05 13:11:00,
2013-03-05 06:21:00,15.0,9.0,-100.00,East,85,2.0,5.0,76,-99.99,,,-99.99,,2013-03-05 13:21:00,
2013-03-05 06:31:00,15.0,8.0,-100.00,ENE,60,1.0,4.0,76,-99.99,,,-99.99,,2013-03-05 13:31:00,
2013-03-05 06:42:00,15.0,8.0,-100.00,ENE,60,1.0,4.0,76,-99.99,,,-99.99,,2013-03-05 13:42:00,
2013-03-05 06:52:00,15.0,8.0,-100.00,ENE,60,1.0,4.0,76,-99.99,,,-99.99,,2013-03-05 13:52:00,
2013-03-05 07:02:00,14.0,8.0,-100.00,East,95,1.0,5.0,76,-99.99,,,-99.99,,2013-03-05 14:02:00,
2013-03-05 07:11:00,14.0,8.0,-100.00,East,85,1.0,4.0,77,-99.99,,,-99.99,,2013-03-05 14:11:00,
2013-03-05 07:21:00,14.0,9.0,-100.00,ENE,65,2.0,6.0,77,-99.99,,,-99.99,,2013-03-05 14:21:00,
2013-03-05 07:31:00,14.0,8.0,-100.00,ENE,75,2.0,5.0,77,-99.99,,,-99.99,,2013-03-05 14:31:00,
2013-03-05 07:41:00,14.0,8.0,-100.00,ENE,70,3.0,6.0,77,-99.99,,,-99.99,,2013-03-05 14:41:00,
2013-03-05 07:52:00,14.0,8.0,-100.00,NE,55,1.0,6.0,77,-99.99,,,-99.99,,2013-03-05 14:52:00,
2013-03-05 08:01:00,14.0,9.0,-100.00,North,0,0.0,3.0,77,-99.99,,,-99.99,,2013-03-05 15:01:00,
2013-03-05 08:11:00,15.0,9.0,-100.00,ENE,60,1.0,4.0,77,-99.99,,,-99.99,,2013-03-05 15:11:00,
2013-03-05 08:21:00,15.0,9.0,-100.00,ENE,60,1.0,4.0,77,-99.99,,,-99.99,,2013-03-05 15:21:00,
2013-03-05 08:31:00,15.0,9.0,-100.00,ENE,60,1.0,4.0,77,-99.99,,,-99.99,,2013-03-05 15:31:00,
2013-03-05 08:42:00,16.0,10.0,-100.00,NE,50,1.0,4.0,76,-99.99,,,-99.99,,2013-03-05 15:42:00,
2013-03-05 08:51:00,16.0,10.0,-100.00,NE,50,1.0,4.0,76,-99.99,,,-99.99,,2013-03-05 15:51:00,
2013-03-05 09:01:00,17.0,10.0,-100.00,NE,45,1.0,3.0,75,-99.99,,,-99.99,,2013-03-05 16:01:00,
2013-03-05 09:11:00,17.0,10.0,-100.00,NE,35,0.0,4.0,74,-99.99,,,-99.99,,2013-03-05 16:11:00,
2013-03-05 09:21:00,17.0,10.0,-100.00,NE,35,0.0,4.0,74,-99.99,,,-99.99,,2013-03-05 16:21:00,
2013-03-05 09:32:00,18.0,11.0,-100.00,NE,35,0.0,4.0,72,-99.99,,,-99.99,,2013-03-05 16:32:00,
2013-03-05 09:41:00,18.0,11.0,-100.00,NE,35,0.0,4.0,72,-99.99,,,-99.99,,2013-03-05 16:41:00,
2013-03-05 09:51:00,19.0,11.0,-100.00,ENE,65,1.0,4.0,70,-99.99,,,-99.99,,2013-03-05 16:51:00,
2013-03-05 10:01:00,19.0,11.0,-100.00,ENE,65,1.0,4.0,70,-99.99,,,-99.99,,2013-03-05 17:01:00,
2013-03-05 10:11:00,19.0,11.0,-100.00,ENE,65,1.0,4.0,70,-99.99,,,-99.99,,2013-03-05 17:11:00,
2013-03-05 10:21:00,21.0,12.0,-100.00,East,80,0.0,2.0,67,-99.99,,,-99.99,,2013-03-05 17:21:00,
2013-03-05 10:32:00,22.0,12.0,-100.00,ENE,70,2.0,6.0,63,-99.99,,,-99.99,,2013-03-05 17:32:00,
2013-03-05 10:41:00,24.0,12.0,-100.00,ENE,70,1.0,6.0,60,-99.99,,,-99.99,,2013-03-05 17:41:00,
2013-03-05 10:52:00,26.0,12.0,-100.00,East,95,4.0,7.0,56,-99.99,,,-99.99,,2013-03-05 17:52:00,
2013-03-05 11:01:00,27.0,12.0,-100.00,East,90,3.0,7.0,53,-99.99,,,-99.99,,2013-03-05 18:01:00,
2013-03-05 11:11:00,27.0,12.0,-100.00,East,90,3.0,7.0,53,-99.99,,,-99.99,,2013-03-05 18:11:00,
2013-03-05 11:21:00,31.0,15.0,-100.00,East,90,4.0,7.0,50,-99.99,,,-99.99,,2013-03-05 18:21:00,
2013-03-05 11:31:00,32.0,14.0,-100.00,East,90,4.0,7.0,47,-99.99,,,-99.99,,2013-03-05 18:31:00,
2013-03-05 11:41:00,33.0,14.0,-100.00,East,90,4.0,7.0,45,-99.99,,,-99.99,,2013-03-05 18:41:00,
2013-03-05 11:52:00,33.0,14.0,-100.00,East,90,4.0,7.0,43,-99.99,,,-99.99,,2013-03-05 18:52:00,
2013-03-05 12:01:00,34.0,14.0,-100.00,East,90,6.0,8.0,42,-99.99,,,-99.99,,2013-03-05 19:01:00,
2013-03-05 12:11:00,34.0,14.0,-100.00,East,90,6.0,8.0,42,-99.99,,,-99.99,,2013-03-05 19:11:00,
2013-03-05 12:21:00,34.0,14.0,-100.00,East,90,6.0,8.0,42,-99.99,,,-99.99,,2013-03-05 19:21:00,
2013-03-05 12:31:00,36.0,14.0,-100.00,East,85,4.0,7.0,39,-99.99,,,-99.99,,2013-03-05 19:31:00,
2013-03-05 12:41:00,37.0,14.0,-100.00,East,80,4.0,7.0,37,-99.99,,,-99.99,,2013-03-05 19:41:00,
2013-03-05 12:51:00,37.0,14.0,-100.00,East,80,4.0,7.0,37,-99.99,,,-99.99,,2013-03-05 19:51:00,
2013-03-05 13:01:00,37.0,14.0,-100.00,East,80,4.0,7.0,37,-99.99,,,-99.99,,2013-03-05 20:01:00,
2013-03-05 13:11:00,38.0,13.0,-100.00,East,85,5.0,7.0,35,-99.99,,,-99.99,,2013-03-05 20:11:00,
2013-03-05 13:21:00,38.0,13.0,-100.00,East,80,4.0,7.0,35,-99.99,,,-99.99,,2013-03-05 20:21:00,
2013-03-05 13:31:00,39.0,13.0,-100.00,East,85,4.0,6.0,34,-99.99,,,-99.99,,2013-03-05 20:31:00,
2013-03-05 13:41:00,40.0,14.0,-100.00,East,90,4.0,6.0,33,-99.99,,,-99.99,,2013-03-05 20:41:00,
2013-03-05 13:52:00,41.0,15.0,-100.00,East,95,3.0,6.0,33,-99.99,,,-99.99,,2013-03-05 20:52:00,
2013-03-05 14:01:00,41.0,15.0,-100.00,ESE,115,2.0,4.0,33,-99.99,,,-99.99,,2013-03-05 21:01:00,
2013-03-05 14:11:00,42.0,15.0,-100.00,East,95,2.0,4.0,32,-99.99,,,-99.99,,2013-03-05 21:11:00,
2013-03-05 14:21:00,42.0,15.0,-100.00,ESE,105,2.0,4.0,32,-99.99,,,-99.99,,2013-03-05 21:21:00,
2013-03-05 14:31:00,42.0,14.0,-100.00,East,95,1.0,2.0,32,-99.99,,,-99.99,,2013-03-05 21:31:00,
2013-03-05 14:41:00,42.0,14.0,-100.00,East,95,1.0,2.0,32,-99.99,,,-99.99,,2013-03-05 21:41:00,
2013-03-05 14:52:00,43.0,16.0,-100.00,East,100,1.0,2.0,32,-99.99,,,-99.99,,2013-03-05 21:52:00,
2013-03-05 15:01:00,43.0,16.0,-100.00,East,100,1.0,2.0,32,-99.99,,,-99.99,,2013-03-05 22:01:00,
2013-03-05 15:11:00,45.0,17.0,-100.00,East,90,2.0,3.0,31,-99.99,,,-99.99,,2013-03-05 22:11:00,
2013-03-05 15:21:00,46.0,17.0,-100.00,East,90,1.0,3.0,30,-99.99,,,-99.99,,2013-03-05 22:21:00,
2013-03-05 15:31:00,46.0,17.0,-100.00,East,90,1.0,3.0,30,-99.99,,,-99.99,,2013-03-05 22:31:00,
2013-03-05 15:41:00,46.0,18.0,-100.00,West,270,1.0,2.0,31,-99.99,,,-99.99,,2013-03-05 22:41:00,
2013-03-05 15:51:00,46.0,18.0,-100.00,West,270,1.0,2.0,31,-99.99,,,-99.99,,2013-03-05 22:51:00,
2013-03-05 16:01:00,46.0,17.0,-100.00,West,265,2.0,4.0,30,-99.99,,,-99.99,,2013-03-05 23:01:00,
2013-03-05 16:11:00,46.0,17.0,-100.00,West,265,2.0,4.0,30,-99.99,,,-99.99,,2013-03-05 23:11:00,
2013-03-05 16:21:00,45.0,15.0,-100.00,WNW,290,4.0,6.0,28,-99.99,,,-99.99,,2013-03-05 23:21:00,
2013-03-05 16:32:00,45.0,15.0,-100.00,NW,305,4.0,7.0,28,-99.99,,,-99.99,,2013-03-05 23:32:00,
2013-03-05 16:41:00,45.0,15.0,-100.00,SW,215,3.0,6.0,28,-99.99,,,-99.99,,2013-03-05 23:41:00,
2013-03-05 16:52:00,45.0,15.0,-100.00,SW,215,3.0,6.0,28,-99.99,,,-99.99,,2013-03-05 23:52:00,
2013-03-05 17:01:00,44.0,15.0,-100.00,West,270,2.0,6.0,29,-99.99,,,-99.99,,2013-03-06 00:01:00,
2013-03-05 17:11:00,44.0,15.0,-100.00,West,270,2.0,6.0,29,-99.99,,,-99.99,,2013-03-06 00:11:00,
2013-03-05 17:21:00,43.0,15.0,-100.00,SW,235,5.0,8.0,32,-99.99,,,-99.99,,2013-03-06 00:21:00,
2013-03-05 17:32:00,42.0,16.0,-100.00,SW,235,4.0,8.0,34,-99.99,,,-99.99,,2013-03-06 00:32:00,
2013-03-05 17:41:00,42.0,16.0,-100.00,SW,235,4.0,8.0,34,-99.99,,,-99.99,,2013-03-06 00:41:00,
2013-03-05 17:52:00,42.0,16.0,-100.00,SW,235,4.0,8.0,34,-99.99,,,-99.99,,2013-03-06 00:52:00,
2013-03-05 18:01:00,40.0,17.0,-100.00,WNW,295,3.0,7.0,37,-99.99,,,-99.99,,2013-03-06 01:01:00,
2013-03-05 18:11:00,40.0,17.0,-100.00,WNW,295,3.0,7.0,37,-99.99,,,-99.99,,2013-03-06 01:11:00,
2013-03-05 18:21:00,40.0,17.0,-100.00,WSW,245,4.0,6.0,39,-99.99,,,-99.99,,2013-03-06 01:21:00,
2013-03-05 18:31:00,39.0,18.0,-100.00,WSW,240,4.0,6.0,41,-99.99,,,-99.99,,2013-03-06 01:31:00,
2013-03-05 18:52:00,38.0,18.0,-100.00,WSW,245,7.0,9.0,43,-99.99,,,-99.99,,2013-03-06 01:52:00,
2013-03-05 19:01:00,37.0,19.0,-100.00,WSW,240,6.0,10.0,45,-99.99,,,-99.99,,2013-03-06 02:01:00,
2013-03-05 19:11:00,37.0,18.0,-100.00,SW,235,7.0,9.0,46,-99.99,,,-99.99,,2013-03-06 02:11:00,
2013-03-05 19:21:00,37.0,18.0,-100.00,SW,235,7.0,9.0,46,-99.99,,,-99.99,,2013-03-06 02:21:00,
2013-03-05 19:31:00,37.0,18.0,-100.00,SW,235,7.0,9.0,46,-99.99,,,-99.99,,2013-03-06 02:31:00,
2013-03-05 19:41:00,36.0,18.0,-100.00,SW,220,4.0,7.0,46,-99.99,,,-99.99,,2013-03-06 02:41:00,
2013-03-05 19:52:00,34.0,17.0,-100.00,North,0,0.0,2.0,48,-99.99,,,-99.99,,2013-03-06 02:52:00,
2013-03-05 20:01:00,34.0,17.0,-100.00,North,0,0.0,2.0,48,-99.99,,,-99.99,,2013-03-06 03:01:00,
2013-03-05 20:11:00,33.0,17.0,-100.00,South,185,0.0,1.0,50,-99.99,,,-99.99,,2013-03-06 03:11:00,
2013-03-05 20:21:00,33.0,17.0,-100.00,East,80,0.0,2.0,51,-99.99,,,-99.99,,2013-03-06 03:21:00,
2013-03-05 20:31:00,32.0,17.0,-100.00,East,90,0.0,1.0,52,-99.99,,,-99.99,,2013-03-06 03:31:00,
2013-03-05 20:41:00,32.0,17.0,-100.00,East,90,0.0,1.0,52,-99.99,,,-99.99,,2013-03-06 03:41:00,
2013-03-05 20:52:00,32.0,17.0,-100.00,SE,135,0.0,1.0,53,-99.99,,,-99.99,,2013-03-06 03:52:00,
2013-03-05 21:01:00,31.0,17.0,-100.00,ESE,115,0.0,1.0,54,-99.99,,,-99.99,,2013-03-06 04:01:00,
2013-03-05 21:11:00,31.0,17.0,-100.00,ENE,60,0.0,1.0,55,-99.99,,,-99.99,,2013-03-06 04:11:00,
2013-03-05 21:21:00,31.0,17.0,-100.00,ENE,75,0.0,1.0,56,-99.99,,,-99.99,,2013-03-06 04:21:00,
2013-03-05 21:31:00,31.0,17.0,-100.00,ENE,75,0.0,1.0,56,-99.99,,,-99.99,,2013-03-06 04:31:00,
2013-03-05 21:41:00,31.0,17.0,-100.00,ENE,75,0.0,1.0,56,-99.99,,,-99.99,,2013-03-06 04:41:00,
2013-03-05 21:51:00,30.0,17.0,-100.00,East,90,0.0,2.0,58,-99.99,,,-99.99,,2013-03-06 04:51:00,
2013-03-05 22:01:00,29.0,17.0,-100.00,ENE,65,0.0,0.0,60,-99.99,,,-99.99,,2013-03-06 05:01:00,
2013-03-05 22:11:00,29.0,17.0,-100.00,ENE,65,0.0,0.0,60,-99.99,,,-99.99,,2013-03-06 05:11:00,
2013-03-05 22:22:00,29.0,18.0,-100.00,ENE,70,1.0,2.0,61,-99.99,,,-99.99,,2013-03-06 05:22:00,
2013-03-05 22:32:00,29.0,18.0,-100.00,NE,55,0.0,1.0,62,-99.99,,,-99.99,,2013-03-06 05:32:00,
2013-03-05 22:42:00,29.0,18.0,-100.00,ENE,60,0.0,2.0,63,-99.99,,,-99.99,,2013-03-06 05:42:00,
2013-03-05 22:52:00,29.0,18.0,-100.00,ENE,70,0.0,3.0,64,-99.99,,,-99.99,,2013-03-06 05:52:00,
2013-03-05 23:01:00,28.0,18.0,-100.00,ENE,65,0.0,2.0,65,-99.99,,,-99.99,,2013-03-06 06:01:00,
2013-03-05 23:11:00,28.0,18.0,-100.00,East,80,0.0,2.0,65,-99.99,,,-99.99,,2013-03-06 06:11:00,
2013-03-05 23:21:00,28.0,18.0,-100.00,East,80,0.0,2.0,65,-99.99,,,-99.99,,2013-03-06 06:21:00,
2013-03-05 23:31:00,28.0,18.0,-100.00,NE,55,1.0,2.0,66,-99.99,,,-99.99,,2013-03-06 06:31:00,
2013-03-05 23:41:00,27.0,18.0,-100.00,NE,45,2.0,4.0,67,-99.99,,,-99.99,,2013-03-06 06:41:00,
2013-03-05 23:52:00,26.0,17.0,-100.00,NE,40,1.0,4.0,68,-99.99,,,-99.99,,2013-03-06 06:52:00,